Historique des mesures à Cassis (13260), France
Quotidien Résumé Aout 11, 2017 Unités:  Métrique    US   Métrique/US
« Précédent (Jour)
Suivant (Jour) »
Quotidien Hebdomadaire Mensuel Annuel Période au choix
  Maximum: Minimum: Moyenne:
Température: TemperatureC °C 17.7 °C 20.2 °C
Point de rosée: DewpointC °C 7.5 °C 8.5 °C
Humidité: Humidity % 37 % 45 %
Vitesse du vent: 0 km/h 9.3 km/h 27.8 km/h
Rafales: 0 km/h - -
Vent:- - SW
Pression: PressurehPa hPa 1011.7 hPa -
Précipitations: 0.0 mm    
Historical Graphs
 
 
Mesures pour : Aout 11, 2017
Heure Temperature Point de rosée Pression Vent Vitesse du vent Rafales Humidité Pluie (par heure) Conditions
TemperatureC °C DewpointC °C PressurehPa hPa Calm     Humidity % HourlyPrecipMM mm SoftwareType W/m2
00:11 20.6 °C 10.4 °C 1012.4 hPa NW 53.9 km/h 53.9 km/h 52 % 0.0 mm open2300-1.11 W/m2
01:11 19.9 °C 10.3 °C 1012.8 hPa NW 9.3 km/h 37 km/h 54 % 0.0 mm open2300-1.11 W/m2
02:11 19.3 °C 10.0 °C 1012.4 hPa NW 18.7 km/h 21.6 km/h 55 % 0.0 mm open2300-1.11 W/m2
03:11 19.3 °C 10.6 °C 1012.1 hPa North 9.8 km/h 30.7 km/h 57 % 0.0 mm open2300-1.11 W/m2
04:11 18.9 °C 10.4 °C 1011.7 hPa NW 37.5 km/h 38.8 km/h 58 % 0.0 mm open2300-1.11 W/m2
06:11 18.1 °C 9.7 °C 1011.7 hPa NNW 26.7 km/h 40.7 km/h 58 % 0.0 mm open2300-1.11 W/m2
07:11 17.7 °C 9.3 °C 1012.4 hPa NNW 25.4 km/h 50.5 km/h 58 % 0.0 mm open2300-1.11 W/m2
08:11 20.6 °C 9.5 °C 1012.4 hPa NW 40.7 km/h 52.8 km/h 49 % 0.0 mm open2300-1.11 W/m2
09:11 18.4 °C 8.9 °C 1012.8 hPa North 13.2 km/h 60.3 km/h 54 % 0.0 mm open2300-1.11 W/m2
10:11 19.1 °C 8.8 °C 1012.8 hPa WNW 22.5 km/h 27.2 km/h 51 % 0.0 mm open2300-1.11 W/m2
11:11 20.9 °C 8.1 °C 1013.1 hPa NW 22 km/h 40.7 km/h 44 % 0.0 mm open2300-1.11 W/m2
12:11 21.9 °C 8.1 °C 1013.1 hPa WNW 52.8 km/h 52.8 km/h 41 % 0.0 mm open2300-1.11 W/m2
13:11 22.6 °C 7.9 °C 1012.8 hPa West 25.4 km/h 56.6 km/h 39 % 0.0 mm open2300-1.11 W/m2
14:11 23.4 °C 8.2 °C 1012.4 hPa North 44.1 km/h 75.8 km/h 38 % 0.0 mm open2300-1.11 W/m2
15:11 23.8 °C 8.6 °C 1012.1 hPa NE 34.1 km/h 46.3 km/h 38 % 0.0 mm open2300-1.11 W/m2
16:11 23.9 °C 8.2 °C 1012.1 hPa NNW 29 km/h 29 km/h 37 % 0.0 mm open2300-1.11 W/m2
17:11 24.2 °C 8.5 °C 1011.7 hPa North 31.9 km/h 45.4 km/h 37 % 0.0 mm open2300-1.11 W/m2
18:11 23.5 °C 8.3 °C 1011.7 hPa North 23 km/h 38.3 km/h 38 % 0.0 mm open2300-1.11 W/m2
19:11 23.0 °C 9.0 °C 1011.7 hPa NNE 22 km/h 34.1 km/h 41 % 0.0 mm open2300-1.11 W/m2
20:11 22.3 °C 8.7 °C 1012.1 hPa NNW 16.3 km/h 44.1 km/h 42 % 0.0 mm open2300-1.11 W/m2
21:11 21.4 °C 8.2 °C 1012.4 hPa WNW 34.8 km/h 47.3 km/h 43 % 0.0 mm open2300-1.11 W/m2
22:11 20.9 °C 7.5 °C 1012.8 hPa NNW 38.8 km/h 38.8 km/h 42 % 0.0 mm open2300-1.11 W/m2
23:11 20.6 °C 7.9 °C 1013.1 hPa NW 34.8 km/h 49.7 km/h 44 % 0.0 mm open2300-1.11 W/m2
Observations météo à CASSIS
WU-History script by Weather Underground - 1 mb